White Hall, VA (22987)

10:03 PM EST on February 10, 2016 (GMT -0500)
In the country | | Change Station
CLOSE
Current Station
Personal Weather Station
Location: White Hall, VA
Elevation: 722 ft
Nearby Weather Stations

Elev 722 ft 38.13 °N, 78.65 °W | Updated 11 seconds ago

Mostly Cloudy
Mostly Cloudy
22.8 °F
Feels Like 14 °F
N
7.8
Wind Variable Wind from NW
Gusts 10.5 mph

Today
High -- | Low -- °F
--% Chance of Precip.
Yesterday
High -- | Low -- °F
Precip. -- in
Pressure 29.97 in
Visibility 10.0 miles
Clouds Scattered Clouds 10000 ft
Windchill 14 °F
Dew Point 4 °F
Humidity 44%
Rainfall in
Snow Depth Not available.
7:11 AM 5:47 PM
Waxing Crescent, 9% visible
METAR KCHO 110253Z 31006KT 10SM SCT100 M04/M17 A2995 RMK AO2 SLP147 T10441167 51016
Pressure 29.97 in
Visibility 10.0 miles
Clouds Scattered Clouds 10000 ft
Windchill 14 °F
Dew Point 4 °F
Humidity 44%
Rainfall in
Snow Depth Not available.
7:11 AM 5:47 PM
Waxing Crescent, 9% visible
METAR KCHO 110253Z 31006KT 10SM SCT100 M04/M17 A2995 RMK AO2 SLP147 T10441167 51016

10-Day Weather Forecast

Almanac

Astronomy

Feb. 10, 2016 Rise Set
Actual Time
Civil Twilight
Nautical Twilight
Astronomical Twilight
Moon
Length of Visible Light
Length of Day
Tomorrow will be .
, % of the Moon is Illuminated

Today's Extremes

State Highs State Lows

Community

WunderPhotos

Upload Photos

1,891,994 photos uploaded!

WunderBlog® & News

Nearby

Air Quality

  Air Quality AQ Index Pollutant
Not available.

Snow Depth

Station Depth Elevation

Earthquake Activity

City Distance Mag. Time & Date
Minimum magnitude displayed is 2.5.

Coastal Water Temperatures

Place Temperature

Stations

Nearby Weather Stations

Station Location Temp. Windchill Dew Point Humidity Wind Precip. Elev Updated Type
                   

Watches & Warnings

There are currently no watches in effect.